Time;durP1;ratioP1;P1;durP2;ratioP2;P2;SDS_P1;SDS_P2;PMS_P1;PMS_P2;Temp;Humidity;BMP_temperature;BMP_pressure;BME280_temperature;BME280_humidity;BME280_pressure;Samples;Min_cycle;Max_cycle;Signal;HPM_P1;HPM_P2
2022/08/19 00:01:33;;;;;;;;;;;20.60;99.90;;;;;;4228196;28;19904;-67
2022/08/19 00:03:34;;;;;;;;;;;20.50;99.90;;;;;;4229100;28;19956;-67
2022/08/19 00:05:35;;;;;;;;;;;20.40;99.90;;;;;;4228193;28;19903;-65
2022/08/19 00:07:37;;;;;;;;;;;20.30;99.90;;;;;;4228578;28;19914;-65
2022/08/19 00:09:38;;;;;;;;;;;20.30;99.90;;;;;;4228264;28;19945;-63
2022/08/19 00:11:39;;;;;;;;;;;20.40;99.90;;;;;;4228051;28;19911;-66
2022/08/19 00:13:40;;;;;;;;;;;20.40;99.90;;;;;;4228106;28;19912;-64
2022/08/19 00:15:41;;;;;;;;;;;20.30;99.90;;;;;;4228031;28;19908;-66
2022/08/19 00:17:43;;;;;;;;;;;20.20;99.90;;;;;;4228789;28;20020;-63
2022/08/19 00:19:44;;;;;;;;;;;20.10;99.90;;;;;;4227959;28;19949;-66
2022/08/19 00:21:45;;;;;;;;;;;20.10;99.90;;;;;;4228632;28;19911;-66
2022/08/19 00:23:46;;;;;;;;;;;20.10;99.90;;;;;;4227992;28;20383;-67
2022/08/19 00:25:47;;;;;;;;;;;20.20;99.90;;;;;;4227136;28;20488;-62
2022/08/19 00:27:48;;;;;;;;;;;20.30;99.90;;;;;;4227733;28;19903;-67
2022/08/19 00:29:49;;;;;;;;;;;20.20;99.90;;;;;;4229196;28;19907;-66
2022/08/19 00:31:53;;;;;;;;;;;20.20;99.90;;;;;;4227625;28;19949;-66
2022/08/19 00:33:54;;;;;;;;;;;20.20;99.90;;;;;;4228890;28;19907;-66
2022/08/19 00:35:55;;;;;;;;;;;20.20;99.90;;;;;;4227430;28;20248;-67
2022/08/19 00:37:56;;;;;;;;;;;20.10;99.90;;;;;;4228648;28;19912;-66
2022/08/19 00:39:57;;;;;;;;;;;20.10;99.90;;;;;;4227839;28;19907;-65
2022/08/19 00:41:58;;;;;;;;;;;20.10;99.90;;;;;;4227969;28;19904;-66
2022/08/19 00:43:59;;;;;;;;;;;20.10;99.90;;;;;;4228174;28;19907;-64
2022/08/19 00:46:02;;;;;;;;;;;20.10;99.90;;;;;;4226044;28;19911;-66
2022/08/19 00:48:04;;;;;;;;;;;20.20;99.90;;;;;;4228305;28;19911;-66
2022/08/19 00:50:07;;;;;;;;;;;20.20;99.90;;;;;;4227654;28;20288;-67
2022/08/19 00:52:13;;;;;;;;;;;20.10;99.90;;;;;;4228675;28;20359;-66
2022/08/19 00:54:14;;;;;;;;;;;20.10;99.90;;;;;;4227805;28;19960;-66
2022/08/19 00:56:16;;;;;;;;;;;20.10;99.90;;;;;;4228241;28;20329;-64
2022/08/19 00:58:20;;;;;;;;;;;20.10;99.90;;;;;;4227523;28;19908;-65
2022/08/19 01:00:21;;;;;;;;;;;20.10;99.90;;;;;;4228627;28;19952;-65
2022/08/19 01:02:22;;;;;;;;;;;20.20;99.90;;;;;;4226749;28;19956;-63
2022/08/19 01:04:23;;;;;;;;;;;20.20;99.90;;;;;;4228571;28;19908;-65
2022/08/19 01:06:25;;;;;;;;;;;20.10;99.90;;;;;;4227323;28;20339;-64
2022/08/19 01:08:26;;;;;;;;;;;20.10;99.90;;;;;;4228626;28;19957;-65
2022/08/19 01:10:30;;;;;;;;;;;20.20;99.90;;;;;;4227017;28;20320;-66
2022/08/19 01:12:31;;;;;;;;;;;20.10;99.90;;;;;;4228334;28;19964;-66
2022/08/19 01:14:32;;;;;;;;;;;20.00;99.90;;;;;;4227777;28;20654;-66
2022/08/19 01:16:34;;;;;;;;;;;20.00;99.90;;;;;;4227427;28;19969;-64
2022/08/19 01:18:37;;;;;;;;;;;20.00;99.90;;;;;;4227894;28;20305;-64
2022/08/19 01:20:39;;;;;;;;;;;19.90;99.90;;;;;;4227675;28;19928;-66
2022/08/19 01:22:39;;;;;;;;;;;19.90;99.90;;;;;;4228250;28;19916;-65
2022/08/19 01:24:40;;;;;;;;;;;19.90;99.90;;;;;;4227049;28;19915;-65
2022/08/19 01:26:43;;;;;;;;;;;19.90;99.90;;;;;;4228630;28;19908;-63
2022/08/19 01:28:46;;;;;;;;;;;19.80;99.90;;;;;;4227247;28;19911;-65
2022/08/19 01:30:47;;;;;;;;;;;19.70;99.90;;;;;;4228476;28;19912;-64
2022/08/19 01:32:48;;;;;;;;;;;19.60;99.90;;;;;;4227218;28;19911;-63
2022/08/19 01:34:49;;;;;;;;;;;19.50;99.90;;;;;;4231065;28;19907;-65
2022/08/19 01:36:50;;;;;;;;;;;19.60;99.90;;;;;;4229843;28;19904;-63
2022/08/19 01:38:51;;;;;;;;;;;19.60;99.90;;;;;;4231621;28;20495;-64
2022/08/19 01:40:52;;;;;;;;;;;19.60;99.90;;;;;;4230360;28;19969;-65
2022/08/19 01:42:53;;;;;;;;;;;19.50;99.90;;;;;;4231391;28;19904;-67
2022/08/19 01:44:54;;;;;;;;;;;19.40;99.90;;;;;;4228744;28;20307;-65
2022/08/19 01:46:55;;;;;;;;;;;19.30;99.90;;;;;;4231094;28;20367;-66
2022/08/19 01:48:56;;;;;;;;;;;19.20;99.90;;;;;;4230504;28;19912;-65
2022/08/19 01:50:57;;;;;;;;;;;19.10;99.90;;;;;;4230296;28;19907;-63
2022/08/19 01:52:59;;;;;;;;;;;18.90;99.90;;;;;;4231160;28;19912;-63
2022/08/19 01:55:00;;;;;;;;;;;18.60;99.90;;;;;;4229997;28;19904;-64
2022/08/19 01:57:03;;;;;;;;;;;18.50;99.90;;;;;;4231200;28;19914;-63
2022/08/19 01:59:08;;;;;;;;;;;18.50;99.90;;;;;;4229578;28;20404;-65
2022/08/19 02:01:09;;;;;;;;;;;18.50;99.90;;;;;;4231202;28;19957;-64
2022/08/19 02:03:10;;;;;;;;;;;18.50;99.90;;;;;;4230052;28;19908;-66
2022/08/19 02:05:12;;;;;;;;;;;18.40;99.90;;;;;;4229457;28;19907;-63
2022/08/19 02:07:13;;;;;;;;;;;18.40;99.90;;;;;;4230206;28;20114;-67
2022/08/19 02:09:14;;;;;;;;;;;18.40;99.90;;;;;;4230953;28;20245;-67
2022/08/19 02:11:23;;;;;;;;;;;18.40;99.90;;;;;;4229886;28;19949;-63
2022/08/19 02:13:25;;;;;;;;;;;18.50;99.90;;;;;;4229247;28;19916;-63
2022/08/19 02:15:26;;;;;;;;;;;18.40;99.90;;;;;;4229849;28;20032;-65
2022/08/19 02:17:28;;;;;;;;;;;18.40;99.90;;;;;;4230726;28;20436;-62
2022/08/19 02:19:32;;;;;;;;;;;18.40;99.90;;;;;;4229834;28;19925;-65
2022/08/19 02:21:33;;;;;;;;;;;18.50;99.90;;;;;;4230090;28;20056;-65
2022/08/19 02:23:34;;;;;;;;;;;18.50;99.90;;;;;;4230045;28;19961;-66
2022/08/19 02:25:35;;;;;;;;;;;18.50;99.90;;;;;;4230075;28;20350;-66
2022/08/19 02:27:36;;;;;;;;;;;18.40;99.90;;;;;;4230455;28;19907;-65
2022/08/19 02:29:37;;;;;;;;;;;18.50;99.90;;;;;;4227753;28;19908;-66
2022/08/19 02:31:38;;;;;;;;;;;18.40;99.90;;;;;;4230713;28;19903;-64
2022/08/19 02:33:39;;;;;;;;;;;18.40;99.90;;;;;;4229243;28;19911;-65
2022/08/19 02:35:41;;;;;;;;;;;18.30;99.90;;;;;;4230692;28;19904;-65
2022/08/19 02:40:02;;;;;;;;;;;18.40;99.90;;;;;;4230658;28;19953;-63
2022/08/19 02:42:03;;;;;;;;;;;18.40;99.90;;;;;;4228886;28;19949;-66
2022/08/19 02:44:04;;;;;;;;;;;18.40;99.90;;;;;;4230569;28;19915;-65
2022/08/19 02:46:13;;;;;;;;;;;18.30;99.90;;;;;;4228923;28;19960;-63
2022/08/19 02:48:17;;;;;;;;;;;18.30;99.90;;;;;;4230462;28;19938;-63
2022/08/19 02:50:18;;;;;;;;;;;18.30;99.90;;;;;;4228815;28;19965;-64
2022/08/19 02:52:19;;;;;;;;;;;18.30;99.90;;;;;;4229599;28;20256;-64
2022/08/19 02:54:20;;;;;;;;;;;18.40;99.90;;;;;;4227003;28;19941;-65
2022/08/19 02:56:21;;;;;;;;;;;18.30;99.90;;;;;;4230127;28;19903;-67
2022/08/19 02:58:23;;;;;;;;;;;18.40;99.90;;;;;;4229183;28;19900;-67
2022/08/19 03:00:23;;;;;;;;;;;18.40;99.90;;;;;;4229710;28;19957;-64
2022/08/19 03:02:24;;;;;;;;;;;18.30;99.90;;;;;;4229520;28;20259;-63
2022/08/19 03:04:25;;;;;;;;;;;18.30;99.90;;;;;;4229283;28;19904;-66
2022/08/19 03:06:27;;;;;;;;;;;18.30;99.90;;;;;;4230171;28;20317;-63
2022/08/19 03:08:28;;;;;;;;;;;18.30;99.90;;;;;;4227228;28;19969;-64
2022/08/19 03:10:29;;;;;;;;;;;18.30;99.90;;;;;;4230027;28;20352;-65
2022/08/19 03:12:30;;;;;;;;;;;18.20;99.90;;;;;;4228892;28;19903;-65
2022/08/19 03:14:31;;;;;;;;;;;18.10;99.90;;;;;;4229255;28;19908;-66
2022/08/19 03:16:33;;;;;;;;;;;18.10;99.90;;;;;;4228779;28;19956;-67
2022/08/19 03:18:34;;;;;;;;;;;18.10;99.90;;;;;;4229896;28;20364;-67
2022/08/19 03:20:45;;;;;;;;;;;18.10;99.90;;;;;;4228830;28;19962;-66
2022/08/19 03:22:46;;;;;;;;;;;18.00;99.90;;;;;;4229260;28;19956;-64
2022/08/19 03:24:47;;;;;;;;;;;18.10;99.90;;;;;;4228575;28;20313;-63
2022/08/19 03:26:49;;;;;;;;;;;18.10;99.90;;;;;;4229790;28;19907;-63
2022/08/19 03:28:50;;;;;;;;;;;18.10;99.90;;;;;;4228444;28;20442;-63
2022/08/19 03:30:56;;;;;;;;;;;18.10;99.90;;;;;;4229418;28;20007;-63
2022/08/19 03:32:57;;;;;;;;;;;18.20;99.90;;;;;;4228472;28;19915;-65
2022/08/19 03:34:58;;;;;;;;;;;18.20;99.90;;;;;;4228981;28;20449;-66
2022/08/19 03:37:03;;;;;;;;;;;18.20;99.90;;;;;;4228951;28;19904;-66
2022/08/19 03:39:04;;;;;;;;;;;18.20;99.90;;;;;;4228556;28;20310;-68
2022/08/19 03:41:06;;;;;;;;;;;18.30;99.90;;;;;;4229024;28;19903;-66
2022/08/19 03:43:07;;;;;;;;;;;18.30;99.90;;;;;;4228424;28;19988;-67
2022/08/19 03:45:10;;;;;;;;;;;18.30;99.90;;;;;;4227532;28;20356;-67
2022/08/19 03:47:15;;;;;;;;;;;18.40;99.90;;;;;;4228129;28;19911;-66
2022/08/19 03:49:17;;;;;;;;;;;18.50;99.90;;;;;;4229189;28;19903;-64
2022/08/19 03:51:19;;;;;;;;;;;18.80;99.90;;;;;;4228096;28;20388;-65
2022/08/19 03:53:22;;;;;;;;;;;19.00;99.90;;;;;;4228802;27;20412;-65
2022/08/19 03:55:23;;;;;;;;;;;19.20;99.90;;;;;;4227118;28;20379;-64
2022/08/19 03:57:24;;;;;;;;;;;19.50;99.90;;;;;;4228007;28;19987;-64
2022/08/19 03:59:26;;;;;;;;;;;19.80;99.90;;;;;;4227450;28;19912;-64
2022/08/19 04:01:28;;;;;;;;;;;20.00;99.90;;;;;;4229044;28;19904;-65
2022/08/19 04:03:29;;;;;;;;;;;20.20;99.90;;;;;;4228102;28;19904;-63
2022/08/19 04:05:30;;;;;;;;;;;20.50;99.90;;;;;;4228705;28;19930;-67
2022/08/19 04:07:31;;;;;;;;;;;20.90;99.90;;;;;;4228494;28;20302;-65
2022/08/19 04:09:34;;;;;;;;;;;21.20;99.90;;;;;;4227972;28;19914;-63
2022/08/19 04:11:43;;;;;;;;;;;21.50;99.90;;;;;;4228282;28;19903;-61
2022/08/19 04:13:44;;;;;;;;;;;21.40;99.90;;;;;;4228087;28;20322;-64
2022/08/19 04:15:46;;;;;;;;;;;21.50;99.90;;;;;;4228293;28;20286;-64
2022/08/19 04:17:46;;;;;;;;;;;21.90;99.90;;;;;;4227644;28;19950;-62
2022/08/19 04:19:47;;;;;;;;;;;22.20;99.90;;;;;;4228534;28;19903;-64
2022/08/19 04:21:50;;;;;;;;;;;22.50;99.90;;;;;;4227553;28;19908;-63
2022/08/19 04:23:51;;;;;;;;;;;22.50;99.90;;;;;;4228379;28;19915;-63
2022/08/19 04:25:52;;;;;;;;;;;22.90;99.90;;;;;;4227634;28;19976;-64
2022/08/19 04:27:53;;;;;;;;;;;23.30;99.90;;;;;;4228675;28;20325;-62
2022/08/19 04:29:54;;;;;;;;;;;23.80;99.90;;;;;;4227592;28;19916;-64
2022/08/19 04:31:56;;;;;;;;;;;24.20;99.90;;;;;;4228479;28;19911;-64
2022/08/19 04:33:57;;;;;;;;;;;24.30;99.90;;;;;;4227335;28;19916;-63
2022/08/19 04:35:59;;;;;;;;;;;24.30;99.90;;;;;;4227953;28;19933;-64
2022/08/19 04:38:00;;;;;;;;;;;24.60;99.90;;;;;;4227384;28;19904;-63
2022/08/19 04:42:40;;;;;;;;;;;25.50;99.90;;;;;;4227582;28;20313;-63
2022/08/19 04:44:41;;;;;;;;;;;25.90;99.90;;;;;;4228615;28;20348;-64
2022/08/19 04:46:42;;;;;;;;;;;26.20;99.90;;;;;;4224985;28;19976;-63
2022/08/19 04:48:43;;;;;;;;;;;26.30;99.90;;;;;;4225334;28;19915;-64
2022/08/19 04:50:44;;;;;;;;;;;26.50;99.90;;;;;;4227108;28;19916;-64
2022/08/19 04:52:45;;;;;;;;;;;26.70;99.90;;;;;;4227509;28;19914;-64
2022/08/19 04:54:46;;;;;;;;;;;26.80;99.90;;;;;;4227984;28;19912;-63
2022/08/19 04:56:49;;;;;;;;;;;26.80;99.90;;;;;;4227260;27;19908;-63
2022/08/19 04:58:51;;;;;;;;;;;27.10;99.90;;;;;;4227826;28;19969;-67
2022/08/19 05:00:52;;;;;;;;;;;27.00;99.90;;;;;;4226205;28;19911;-61
2022/08/19 05:02:53;;;;;;;;;;;27.10;99.90;;;;;;4227956;28;19953;-63
2022/08/19 05:04:59;;;;;;;;;;;27.10;99.90;;;;;;4227393;28;19995;-64
2022/08/19 05:07:03;;;;;;;;;;;27.30;99.90;;;;;;4228343;28;20348;-63
2022/08/19 05:09:05;;;;;;;;;;;27.00;99.90;;;;;;4228690;28;20309;-63
2022/08/19 05:11:13;;;;;;;;;;;27.10;99.90;;;;;;4231749;28;19908;-65
2022/08/19 05:13:15;;;;;;;;;;;27.50;99.90;;;;;;4230334;28;20420;-65
2022/08/19 05:15:16;;;;;;;;;;;27.70;99.90;;;;;;4231559;28;20424;-63
2022/08/19 05:17:17;;;;;;;;;;;28.30;99.90;;;;;;4230287;28;19910;-63
2022/08/19 05:24:19;;;;;;;;;;;29.80;99.00;;;;;;4212876;28;19933;-65
2022/08/19 05:26:20;;;;;;;;;;;30.10;98.20;;;;;;4213186;28;19942;-65
2022/08/19 05:28:21;;;;;;;;;;;29.80;97.80;;;;;;4231113;28;19976;-64
2022/08/19 05:30:22;;;;;;;;;;;29.60;97.90;;;;;;4230071;28;19960;-64
2022/08/19 05:32:23;;;;;;;;;;;29.90;98.50;;;;;;4231568;28;19957;-62
2022/08/19 05:34:25;;;;;;;;;;;29.90;97.30;;;;;;4229919;28;19981;-63
2022/08/19 05:36:28;;;;;;;;;;;30.00;97.50;;;;;;4226440;27;19908;-64
2022/08/19 05:38:29;;;;;;;;;;;30.10;97.20;;;;;;4228544;28;19908;-62
2022/08/19 05:40:30;;;;;;;;;;;29.90;97.10;;;;;;4230680;28;19956;-64
2022/08/19 05:42:31;;;;;;;;;;;29.30;97.40;;;;;;4230518;28;19907;-64
2022/08/19 05:44:34;;;;;;;;;;;29.10;99.00;;;;;;4230725;28;19953;-63
2022/08/19 05:46:37;;;;;;;;;;;28.70;98.30;;;;;;4230497;28;20348;-65
2022/08/19 05:48:38;;;;;;;;;;;28.40;98.90;;;;;;4225917;28;19908;-67
2022/08/19 05:50:40;;;;;;;;;;;28.40;98.50;;;;;;4230114;28;19915;-65
2022/08/19 05:52:41;;;;;;;;;;;28.50;98.60;;;;;;4229014;28;20444;-66
2022/08/19 05:54:42;;;;;;;;;;;28.30;98.70;;;;;;4230984;28;19919;-64
2022/08/19 05:56:43;;;;;;;;;;;27.90;99.00;;;;;;4229187;28;19977;-64
2022/08/19 05:58:44;;;;;;;;;;;28.00;99.30;;;;;;4231026;28;19904;-66
2022/08/19 06:00:45;;;;;;;;;;;27.80;99.50;;;;;;4229201;28;19907;-63
2022/08/19 06:02:46;;;;;;;;;;;27.60;99.90;;;;;;4230185;28;19910;-65
2022/08/19 06:04:47;;;;;;;;;;;27.60;99.90;;;;;;4229048;27;19907;-66
2022/08/19 06:06:50;;;;;;;;;;;27.50;99.90;;;;;;4229750;28;20348;-66
2022/08/19 06:08:51;;;;;;;;;;;27.40;99.90;;;;;;4229115;28;19969;-64
2022/08/19 06:10:52;;;;;;;;;;;27.40;99.90;;;;;;4230048;28;19903;-64
2022/08/19 06:12:55;;;;;;;;;;;27.40;99.90;;;;;;4229567;28;20404;-64
2022/08/19 06:14:57;;;;;;;;;;;27.10;99.90;;;;;;4228895;28;19915;-65
2022/08/19 06:17:01;;;;;;;;;;;26.80;99.90;;;;;;4230217;28;19924;-67
2022/08/19 06:19:03;;;;;;;;;;;26.70;99.90;;;;;;4228926;28;19949;-64
2022/08/19 06:21:04;;;;;;;;;;;26.40;99.90;;;;;;4229911;28;19912;-65
2022/08/19 06:23:05;;;;;;;;;;;26.50;99.90;;;;;;4227208;28;19965;-64
2022/08/19 06:25:06;;;;;;;;;;;26.30;99.90;;;;;;4230355;28;20278;-65
2022/08/19 06:27:08;;;;;;;;;;;26.60;99.90;;;;;;4229169;28;19908;-65
2022/08/19 06:29:10;;;;;;;;;;;26.30;99.90;;;;;;4229157;28;19953;-65
2022/08/19 06:31:13;;;;;;;;;;;26.10;99.90;;;;;;4228587;28;20385;-64
2022/08/19 06:33:14;;;;;;;;;;;26.20;99.90;;;;;;4229171;28;19957;-64
2022/08/19 06:35:15;;;;;;;;;;;26.30;99.90;;;;;;4229072;28;19904;-64
2022/08/19 06:37:16;;;;;;;;;;;26.30;99.90;;;;;;4229931;28;19912;-65
2022/08/19 06:39:22;;;;;;;;;;;26.20;99.90;;;;;;4228841;28;20321;-63
2022/08/19 06:41:23;;;;;;;;;;;26.20;99.90;;;;;;4229333;28;19904;-66
2022/08/19 06:43:24;;;;;;;;;;;26.30;99.90;;;;;;4228646;27;19904;-63
2022/08/19 06:45:25;;;;;;;;;;;26.40;99.90;;;;;;4229456;28;19938;-66
2022/08/19 06:47:26;;;;;;;;;;;26.70;99.90;;;;;;4228953;27;19928;-67
2022/08/19 06:49:30;;;;;;;;;;;26.70;99.90;;;;;;4228345;28;20335;-64
2022/08/19 06:51:32;;;;;;;;;;;26.80;99.90;;;;;;4229082;28;19909;-65
2022/08/19 06:53:33;;;;;;;;;;;26.90;99.90;;;;;;4229566;27;19919;-63
2022/08/19 06:55:34;;;;;;;;;;;27.00;99.90;;;;;;4228826;28;19904;-64
2022/08/19 06:57:35;;;;;;;;;;;27.10;99.90;;;;;;4228911;28;19937;-63
2022/08/19 06:59:36;;;;;;;;;;;27.20;99.90;;;;;;4229878;28;19950;-66
2022/08/19 07:01:39;;;;;;;;;;;27.70;99.90;;;;;;4228795;28;19911;-64
2022/08/19 07:03:40;;;;;;;;;;;28.30;99.90;;;;;;4229691;28;19965;-64
2022/08/19 07:05:41;;;;;;;;;;;28.50;99.90;;;;;;4228901;28;19907;-63
2022/08/19 07:07:43;;;;;;;;;;;29.00;99.80;;;;;;4229527;28;19908;-64
2022/08/19 07:09:44;;;;;;;;;;;29.10;99.30;;;;;;4228803;28;19952;-64
2022/08/19 07:11:47;;;;;;;;;;;29.00;99.30;;;;;;4229841;28;19953;-64
2022/08/19 07:13:48;;;;;;;;;;;28.50;99.60;;;;;;4228102;28;20205;-64
2022/08/19 07:15:50;;;;;;;;;;;28.50;99.90;;;;;;4229371;28;19912;-66
2022/08/19 07:17:51;;;;;;;;;;;28.20;99.90;;;;;;4228230;28;19907;-64
2022/08/19 07:19:52;;;;;;;;;;;28.30;99.90;;;;;;4229352;28;19952;-65
2022/08/19 07:21:54;;;;;;;;;;;28.30;99.90;;;;;;4228813;28;19945;-64
2022/08/19 07:23:57;;;;;;;;;;;28.30;99.90;;;;;;4228158;28;19985;-65
2022/08/19 07:25:58;;;;;;;;;;;28.70;99.90;;;;;;4229203;28;19936;-65
2022/08/19 07:27:59;;;;;;;;;;;29.00;99.50;;;;;;4228572;28;19912;-65
2022/08/19 07:30:00;;;;;;;;;;;29.30;99.20;;;;;;4229197;28;19908;-65
2022/08/19 07:32:01;;;;;;;;;;;29.10;98.90;;;;;;4226924;28;19949;-64
2022/08/19 07:34:06;;;;;;;;;;;29.30;99.00;;;;;;4228803;28;19915;-64
2022/08/19 07:36:11;;;;;;;;;;;29.60;98.80;;;;;;4227757;28;19953;-65
2022/08/19 07:38:11;;;;;;;;;;;30.00;98.70;;;;;;4229270;28;19907;-64
2022/08/19 07:40:13;;;;;;;;;;;29.90;97.80;;;;;;4228198;28;19903;-65
2022/08/19 07:42:14;;;;;;;;;;;29.70;98.20;;;;;;4229416;28;20939;-65
2022/08/19 07:44:15;;;;;;;;;;;29.60;98.10;;;;;;4227668;28;20387;-65
2022/08/19 07:46:17;;;;;;;;;;;29.60;98.10;;;;;;4229267;28;20301;-64
2022/08/19 07:48:18;;;;;;;;;;;29.20;98.20;;;;;;4228194;28;19903;-66
2022/08/19 07:50:20;;;;;;;;;;;29.00;98.50;;;;;;4228452;28;19904;-66
2022/08/19 07:52:22;;;;;;;;;;;28.90;98.90;;;;;;4228310;28;19903;-66
2022/08/19 07:54:24;;;;;;;;;;;28.80;98.90;;;;;;4228459;28;19911;-65
2022/08/19 07:56:25;;;;;;;;;;;28.80;98.90;;;;;;4228483;28;19903;-65
2022/08/19 07:58:27;;;;;;;;;;;28.90;99.00;;;;;;4228208;28;19949;-66
2022/08/19 08:00:27;;;;;;;;;;;28.90;98.80;;;;;;4228272;27;19908;-65
2022/08/19 08:02:28;;;;;;;;;;;29.10;98.70;;;;;;4226558;28;19907;-65
2022/08/19 08:09:12;;;;;;;;;;;29.40;98.20;;;;;;4228756;28;19973;-65
2022/08/19 08:11:13;;;;;;;;;;;29.40;98.00;;;;;;4227881;28;19912;-65
2022/08/19 08:13:14;;;;;;;;;;;29.00;98.20;;;;;;4228365;28;19904;-65
2022/08/19 08:15:19;;;;;;;;;;;29.00;98.60;;;;;;4227760;28;19919;-65
2022/08/19 08:17:21;;;;;;;;;;;29.00;98.40;;;;;;4228865;28;19961;-64
2022/08/19 08:19:23;;;;;;;;;;;29.00;98.60;;;;;;4227598;28;19956;-64
2022/08/19 08:21:24;;;;;;;;;;;29.00;98.50;;;;;;4228211;28;19992;-65
2022/08/19 08:23:26;;;;;;;;;;;29.00;98.60;;;;;;4227450;28;19961;-65
2022/08/19 08:25:27;;;;;;;;;;;29.10;98.10;;;;;;4237324;27;20048;-64
2022/08/19 08:27:29;;;;;;;;;;;29.20;98.40;;;;;;4244457;27;19903;-64
2022/08/19 08:29:30;;;;;;;;;;;29.30;98.10;;;;;;4245584;27;19908;-67
2022/08/19 08:31:33;;;;;;;;;;;29.40;97.90;;;;;;4244558;27;20309;-65
2022/08/19 08:33:34;;;;;;;;;;;29.30;97.50;;;;;;4245401;27;19956;-65
2022/08/19 08:35:35;;;;;;;;;;;29.40;97.80;;;;;;4244903;27;20382;-67
2022/08/19 08:37:36;;;;;;;;;;;29.40;97.60;;;;;;4236158;27;20395;-65
2022/08/19 08:39:37;;;;;;;;;;;29.40;97.40;;;;;;4227575;28;19953;-66
2022/08/19 08:41:50;;;;;;;;;;;29.30;97.40;;;;;;4227198;28;19904;-65
2022/08/19 08:43:52;;;;;;;;;;;29.50;97.20;;;;;;4227245;28;19907;-64
2022/08/19 08:46:00;;;;;;;;;;;29.80;97.10;;;;;;4227391;28;19903;-65
2022/08/19 08:48:03;;;;;;;;;;;30.10;96.70;;;;;;4227852;28;19953;-65
2022/08/19 08:50:06;;;;;;;;;;;30.30;96.10;;;;;;4227658;28;20306;-65
2022/08/19 08:52:35;;;;;;;;;;;30.40;96.00;;;;;;4228421;28;19948;-64
2022/08/19 08:54:38;;;;;;;;;;;30.30;96.40;;;;;;4226950;28;20359;-64
2022/08/19 08:56:40;;;;;;;;;;;30.00;95.90;;;;;;4226375;28;20398;-64
2022/08/19 08:58:50;;;;;;;;;;;29.80;96.10;;;;;;4225943;28;19949;-64
2022/08/19 09:00:50;;;;;;;;;;;29.70;96.20;;;;;;4228088;28;19907;-64
2022/08/19 09:02:52;;;;;;;;;;;29.70;96.00;;;;;;4225034;28;19984;-64
2022/08/19 09:04:54;;;;;;;;;;;29.70;95.80;;;;;;4228127;28;19915;-66
2022/08/19 09:07:15;;;;;;;;;;;29.60;95.80;;;;;;4226691;28;19908;-63
2022/08/19 09:09:31;;;;;;;;;;;29.60;95.80;;;;;;4217369;28;19904;-66
2022/08/19 09:11:35;;;;;;;;;;;29.50;95.80;;;;;;4227209;28;20347;-66
2022/08/19 09:13:55;;;;;;;;;;;29.50;95.80;;;;;;4228467;28;19907;-64
2022/08/19 09:16:27;;;;;;;;;;;29.50;95.60;;;;;;4226584;28;20006;-65
2022/08/19 09:18:46;;;;;;;;;;;29.70;95.20;;;;;;4214186;28;19903;-65
2022/08/19 09:20:47;;;;;;;;;;;29.60;95.00;;;;;;4227743;28;19911;-66
2022/08/19 09:22:49;;;;;;;;;;;29.50;95.20;;;;;;4227669;28;19923;-64
2022/08/19 09:24:55;;;;;;;;;;;29.50;95.40;;;;;;4227292;28;19981;-66
2022/08/19 09:26:55;;;;;;;;;;;29.60;95.10;;;;;;4228324;28;19908;-66
2022/08/19 09:28:57;;;;;;;;;;;29.70;95.10;;;;;;4227111;28;20013;-64
2022/08/19 09:30:58;;;;;;;;;;;29.70;94.70;;;;;;4228061;28;20000;-64
2022/08/19 09:33:00;;;;;;;;;;;29.80;94.60;;;;;;4226453;28;19908;-64
2022/08/19 09:35:01;;;;;;;;;;;29.80;94.30;;;;;;4227600;28;20397;-64
2022/08/19 09:37:02;;;;;;;;;;;29.70;94.30;;;;;;4226957;28;19931;-64
2022/08/19 09:39:04;;;;;;;;;;;29.60;94.20;;;;;;4228157;28;19908;-64
2022/08/19 09:41:05;;;;;;;;;;;29.70;94.00;;;;;;4226603;28;19904;-64
2022/08/19 09:43:07;;;;;;;;;;;29.60;94.30;;;;;;4228069;28;19907;-64
2022/08/19 09:45:09;;;;;;;;;;;29.80;94.30;;;;;;4226844;28;20361;-65
2022/08/19 09:47:11;;;;;;;;;;;29.80;94.00;;;;;;4227811;28;19958;-64
2022/08/19 09:49:12;;;;;;;;;;;29.80;94.00;;;;;;4226880;28;19904;-65
2022/08/19 09:51:17;;;;;;;;;;;29.90;93.50;;;;;;4227404;28;20631;-64
2022/08/19 09:53:18;;;;;;;;;;;30.00;92.80;;;;;;4226784;28;20275;-63
2022/08/19 09:55:19;;;;;;;;;;;29.90;92.10;;;;;;4228656;28;19976;-65
2022/08/19 09:57:20;;;;;;;;;;;30.00;93.40;;;;;;4231039;28;19904;-64
2022/08/19 09:59:21;;;;;;;;;;;30.20;93.20;;;;;;4229977;28;20355;-64
2022/08/19 10:01:23;;;;;;;;;;;30.50;92.70;;;;;;4230826;28;19957;-64
2022/08/19 10:03:25;;;;;;;;;;;30.50;92.20;;;;;;4229682;28;19907;-63
2022/08/19 10:07:46;;;;;;;;;;;30.60;92.40;;;;;;4230204;28;19948;-64
2022/08/19 10:09:46;;;;;;;;;;;30.50;92.30;;;;;;4230408;28;19903;-63
2022/08/19 10:11:49;;;;;;;;;;;30.50;92.10;;;;;;4229120;28;20241;-64
2022/08/19 10:13:50;;;;;;;;;;;30.30;92.00;;;;;;4230793;28;19912;-64
2022/08/19 10:15:52;;;;;;;;;;;30.40;91.40;;;;;;4229742;28;19903;-64
2022/08/19 10:17:53;;;;;;;;;;;30.30;91.70;;;;;;4230560;28;19908;-64
2022/08/19 10:19:54;;;;;;;;;;;30.30;91.30;;;;;;4227988;28;20428;-65
2022/08/19 10:21:55;;;;;;;;;;;30.30;91.50;;;;;;4230760;28;19912;-64
2022/08/19 10:23:57;;;;;;;;;;;30.30;90.80;;;;;;4229133;28;19973;-65
2022/08/19 10:26:03;;;;;;;;;;;30.30;91.50;;;;;;4228687;28;19908;-63
2022/08/19 10:28:05;;;;;;;;;;;30.30;90.70;;;;;;4229923;28;19912;-64
2022/08/19 10:30:07;;;;;;;;;;;30.50;91.20;;;;;;4230006;28;20355;-63
2022/08/19 10:32:08;;;;;;;;;;;30.50;91.40;;;;;;4229468;28;20288;-63
2022/08/19 10:34:09;;;;;;;;;;;30.70;90.70;;;;;;4229673;28;19933;-64
2022/08/19 10:36:11;;;;;;;;;;;30.60;90.80;;;;;;4230007;28;19907;-64
2022/08/19 10:38:12;;;;;;;;;;;30.70;90.40;;;;;;4229452;28;19904;-65
2022/08/19 10:40:13;;;;;;;;;;;30.80;90.90;;;;;;4230259;28;19915;-64
2022/08/19 10:42:15;;;;;;;;;;;30.70;90.40;;;;;;4228993;28;19904;-63
2022/08/19 10:44:17;;;;;;;;;;;30.80;90.50;;;;;;4230062;28;20176;-64
2022/08/19 10:46:18;;;;;;;;;;;30.80;90.50;;;;;;4229168;28;19907;-65
2022/08/19 10:48:19;;;;;;;;;;;30.80;90.50;;;;;;4230510;28;20027;-64
2022/08/19 10:52:42;;;;;;;;;;;30.60;90.10;;;;;;4230286;28;19972;-63
2022/08/19 10:57:02;;;;;;;;;;;30.60;88.60;;;;;;4230587;28;20436;-64
2022/08/19 10:59:04;;;;;;;;;;;30.60;88.90;;;;;;4228990;28;19907;-65
2022/08/19 11:01:05;;;;;;;;;;;30.70;89.30;;;;;;4229759;28;19908;-65
2022/08/19 11:03:06;;;;;;;;;;;30.70;89.20;;;;;;4228586;28;19907;-64
2022/08/19 11:05:10;;;;;;;;;;;30.70;89.40;;;;;;4229777;28;19904;-62
2022/08/19 11:07:11;;;;;;;;;;;30.80;88.80;;;;;;4243490;27;19907;-63
2022/08/19 11:09:25;;;;;;;;;;;30.90;88.40;;;;;;4246711;27;19908;-63
2022/08/19 11:11:28;;;;;;;;;;;30.90;88.10;;;;;;4245760;27;20441;-63
2022/08/19 11:13:36;;;;;;;;;;;31.00;87.00;;;;;;4246145;27;19903;-64
2022/08/19 11:15:38;;;;;;;;;;;30.90;87.00;;;;;;4245983;27;19964;-64
2022/08/19 11:17:43;;;;;;;;;;;31.10;87.00;;;;;;4246207;27;19949;-64
2022/08/19 11:19:44;;;;;;;;;;;31.10;85.10;;;;;;4245783;27;19899;-64
2022/08/19 11:21:46;;;;;;;;;;;31.10;86.50;;;;;;4245416;27;20002;-65
2022/08/19 11:23:49;;;;;;;;;;;31.30;85.70;;;;;;4245676;27;19916;-64
2022/08/19 11:25:49;;;;;;;;;;;31.40;86.10;;;;;;4245287;27;19976;-66
2022/08/19 11:27:51;;;;;;;;;;;31.50;86.80;;;;;;4246816;27;19907;-65
2022/08/19 11:29:52;;;;;;;;;;;31.60;86.80;;;;;;4245431;27;19907;-64
2022/08/19 11:31:54;;;;;;;;;;;31.70;85.30;;;;;;4246532;27;20003;-64
2022/08/19 11:33:56;;;;;;;;;;;31.60;84.90;;;;;;4244717;27;19904;-66
2022/08/19 11:35:58;;;;;;;;;;;31.40;85.60;;;;;;4246420;27;19944;-65
2022/08/19 11:37:59;;;;;;;;;;;31.30;85.50;;;;;;4245253;27;19974;-64
2022/08/19 11:40:00;;;;;;;;;;;31.30;84.90;;;;;;4246266;27;19910;-65
2022/08/19 11:42:02;;;;;;;;;;;31.20;85.20;;;;;;4244612;27;19904;-65
2022/08/19 11:44:04;;;;;;;;;;;31.30;85.80;;;;;;4245890;27;19907;-64
2022/08/19 11:46:06;;;;;;;;;;;31.30;84.30;;;;;;4244713;27;19960;-64
2022/08/19 11:48:07;;;;;;;;;;;31.30;84.50;;;;;;4245689;27;19960;-66
2022/08/19 11:50:09;;;;;;;;;;;31.20;83.90;;;;;;4244912;27;19903;-64
2022/08/19 11:52:10;;;;;;;;;;;31.30;84.20;;;;;;4245336;27;19911;-65
2022/08/19 11:54:13;;;;;;;;;;;31.40;83.90;;;;;;4244188;27;19960;-65
2022/08/19 11:56:14;;;;;;;;;;;31.60;84.20;;;;;;4244841;27;19907;-65
2022/08/19 11:58:15;;;;;;;;;;;31.80;83.90;;;;;;4244262;27;19976;-65
2022/08/19 12:00:16;;;;;;;;;;;32.00;84.10;;;;;;4227821;28;19907;-65
2022/08/19 12:02:18;;;;;;;;;;;32.10;82.80;;;;;;4228509;28;19903;-65
2022/08/19 12:04:19;;;;;;;;;;;32.10;83.40;;;;;;4227894;28;19977;-65
2022/08/19 12:06:28;;;;;;;;;;;32.00;82.00;;;;;;4229023;28;19950;-63
2022/08/19 12:08:29;;;;;;;;;;;31.90;81.60;;;;;;4227126;28;19903;-63
2022/08/19 12:10:30;;;;;;;;;;;31.90;81.30;;;;;;4228386;28;19957;-64
2022/08/19 12:12:31;;;;;;;;;;;31.90;81.20;;;;;;4227690;28;20318;-65